This is the latest recevied weather packets stored in our database for station/object GW7287. If no packets are shown the sender has not sent any weather packets the latest 10 day(s).
| Time | Temp. | Humidity | Pressure | Rain* | Wind** | Luminosity | Snow |
|---|---|---|---|---|---|---|---|
| 1777550572 | 15.56° C | 66% | 932.3 hPa | - | - | - | - |
| 1777547027 | 14.44° C | 78% | 932.2 hPa | - | - | - | - |
| 1777543412 | 11.67° C | 88% | 931.9 hPa | - | - | - | - |
| 1777539771 | 10.56° C | 91% | 931.6 hPa | - | - | - | - |
| 1777536347 | 10.56° C | 95% | 931 hPa | - | - | - | - |
| 1777532683 | 10° C | 98% | 930.3 hPa | - | - | - | - |
| 1777529027 | 9.44° C | 98% | 929.6 hPa | - | - | - | - |
| 1777525429 | 10° C | 96% | 929.3 hPa | - | - | - | - |
| 1777522059 | 10.56° C | 95% | 929.2 hPa | - | - | - | - |
| 1777518119 | 10.56° C | 95% | 928.9 hPa | - | - | - | - |
| 1777514481 | 10.56° C | 96% | 928.6 hPa | - | - | - | - |
| 1777510968 | 10.56° C | 96% | 928.2 hPa | - | - | - | - |
| 1777507371 | 10.56° C | 95% | 928.1 hPa | - | - | - | - |
| 1777503694 | 10.56° C | 97% | 927.1 hPa | - | - | - | - |
| 1777500173 | 10.56° C | 95% | 926.5 hPa | - | - | - | - |
| 1777496653 | 11.11° C | 96% | 926.3 hPa | - | - | - | - |
| 1777493028 | 11.67° C | 82% | 926.2 hPa | - | - | - | - |
| 1777489233 | 15.56° C | 72% | 924.5 hPa | - | - | - | - |
| 1777485695 | 17.22° C | 67% | 923.8 hPa | - | - | - | - |
| 1777482223 | 18.89° C | 62% | 923.2 hPa | - | - | - | - |
| 1777478628 | 18.89° C | 62% | 923.1 hPa | - | - | - | - |
| 1777474971 | 17.78° C | 64% | 923 hPa | - | - | - | - |
| 1777471487 | 17.22° C | 68% | 923.2 hPa | - | - | - | - |
| 1777467629 | 18.33° C | 60% | 923 hPa | - | - | - | - |
| 1777464216 | 17.22° C | 68% | 923.5 hPa | - | - | - | - |
* Rain since midnight (hover to see other rain measurements)
** Current wind speed in m/s (hover to see current wind gust speed)